Time;durP1;ratioP1;P1;durP2;ratioP2;P2;SDS_P1;SDS_P2;PMS_P1;PMS_P2;Temp;Humidity;BMP_temperature;BMP_pressure;BME280_temperature;BME280_humidity;BME280_pressure;Samples;Min_cycle;Max_cycle;Signal;HPM_P1;HPM_P2
2021/04/22 00:00:16;;;;;;;6.03;4.90;;;;;;;9.66;55.48;96457.30;1755798;80;21555;-50
2021/04/22 00:02:44;;;;;;;6.10;5.10;;;;;;;9.66;55.56;96456.48;1763414;80;21211;-50
2021/04/22 00:05:25;;;;;;;5.62;5.08;;;;;;;9.66;55.55;96456.48;1740608;80;21129;-49
2021/04/22 00:07:53;;;;;;;5.97;5.33;;;;;;;9.64;55.89;96455.30;1743172;80;21484;-52
2021/04/22 00:10:28;;;;;;;5.22;4.72;;;;;;;9.62;56.21;96453.28;1753916;80;21830;-52
2021/04/22 00:12:55;;;;;;;5.50;4.92;;;;;;;9.57;56.56;96457.92;1748287;80;21046;-50
2021/04/22 00:15:23;;;;;;;6.58;5.33;;;;;;;9.53;56.75;96453.42;1740066;80;21662;-50
2021/04/22 00:17:53;;;;;;;6.95;5.20;;;;;;;9.51;56.79;96438.47;1750019;80;21124;-50
2021/04/22 00:20:21;;;;;;;5.87;5.25;;;;;;;9.53;56.60;96443.55;1741275;80;21565;-50
2021/04/22 00:22:48;;;;;;;5.53;5.00;;;;;;;9.56;56.53;96444.16;1751567;80;21641;-51
2021/04/22 00:25:16;;;;;;;5.72;5.12;;;;;;;9.60;56.61;96441.36;1747783;80;21488;-51
2021/04/22 00:27:44;;;;;;;6.00;4.92;;;;;;;9.61;56.66;96451.61;1746514;80;21290;-50
2021/04/22 00:30:14;;;;;;;6.30;4.97;;;;;;;9.66;56.52;96457.30;1746704;80;21567;-51
2021/04/22 00:32:42;;;;;;;5.33;4.83;;;;;;;9.68;56.31;96448.13;1747728;80;21112;-54
2021/04/22 00:35:11;;;;;;;5.20;4.65;;;;;;;9.69;56.31;96460.98;1739918;81;21165;-50
2021/04/22 00:37:39;;;;;;;6.00;5.30;;;;;;;9.72;56.17;96458.63;1747314;80;21183;-51
2021/04/22 00:40:14;;;;;;;8.88;5.10;;;;;;;9.70;56.16;96469.12;1718116;82;21145;-51
2021/04/22 00:42:41;;;;;;;5.75;4.58;;;;;;;9.69;56.38;96463.57;1735921;80;21163;-55
2021/04/22 00:45:11;;;;;;;5.15;4.65;;;;;;;9.71;56.29;96469.47;1749272;79;21116;-51
2021/04/22 00:47:38;;;;;;;5.42;4.55;;;;;;;9.73;56.23;96457.70;1769687;80;21200;-51
2021/04/22 00:50:15;;;;;;;7.25;4.80;;;;;;;9.70;56.30;96454.88;1775631;80;21104;-51
2021/04/22 00:52:42;;;;;;;9.73;5.00;;;;;;;9.70;56.40;96457.91;1776521;79;21377;-51
2021/04/22 00:55:13;;;;;;;;;;;;;;;9.71;56.54;96466.06;1772934;79;21156;-51
2021/04/22 00:57:42;;;;;;;5.75;4.40;;;;;;;9.73;56.68;96454.64;1782045;79;20462;-51
2021/04/22 01:00:11;;;;;;;5.40;4.90;;;;;;;9.69;56.87;96462.28;1769961;79;21148;-51
2021/04/22 01:02:39;;;;;;;5.20;4.70;;;;;;;9.70;57.05;96458.77;1751043;80;21187;-51
2021/04/22 01:05:17;;;;;;;5.25;4.58;;;;;;;9.69;57.53;96458.39;1774072;79;21431;-51
2021/04/22 01:07:45;;;;;;;4.75;4.22;;;;;;;9.65;57.83;96459.52;1769834;79;21053;-51
2021/04/22 01:10:15;;;;;;;5.10;4.60;;;;;;;9.60;58.00;96459.02;1771196;79;21057;-51
2021/04/22 01:12:43;;;;;;;5.87;4.33;;;;;;;9.62;58.25;96459.76;1782670;79;21132;-52
2021/04/22 01:15:17;;;;;;;4.47;4.08;;;;;;;9.67;58.25;96458.13;1770242;79;21101;-52
2021/04/22 01:17:47;;;;;;;4.42;4.03;;;;;;;9.68;58.22;96464.50;1777154;79;22090;-52
2021/04/22 01:20:23;;;;;;;4.37;3.83;;;;;;;9.72;58.12;96471.14;1758034;79;21227;-52
2021/04/22 01:22:51;;;;;;;4.58;4.17;;;;;;;9.76;58.01;96471.75;1745555;80;21159;-52
2021/04/22 01:25:29;;;;;;;4.33;3.90;;;;;;;9.83;57.90;96470.85;1753471;79;21156;-52
2021/04/22 01:27:57;;;;;;;4.83;4.40;;;;;;;9.87;57.77;96478.80;1760635;79;21196;-51
2021/04/22 01:30:32;;;;;;;4.35;3.90;;;;;;;9.87;57.69;96465.83;1751373;80;21525;-51
2021/04/22 01:33:00;;;;;;;5.08;3.98;;;;;;;9.87;57.69;96468.42;1742339;80;21151;-50
2021/04/22 01:35:39;;;;;;;4.27;3.80;;;;;;;9.85;57.74;96460.76;1748149;80;21155;-51
2021/04/22 01:38:08;;;;;;;5.62;4.00;;;;;;;9.86;57.83;96468.05;1756392;80;21057;-51
2021/04/22 01:40:36;;;;;;;4.15;3.85;;;;;;;9.86;57.88;96473.23;1762860;80;21123;-51
2021/04/22 01:43:04;;;;;;;4.10;3.80;;;;;;;9.86;58.03;96471.94;1756538;80;21402;-51
2021/04/22 01:45:33;;;;;;;4.92;4.40;;;;;;;9.87;57.87;96471.84;1763859;79;21115;-51
2021/04/22 01:48:01;;;;;;;5.12;4.58;;;;;;;9.88;57.92;96473.95;1765189;80;21132;-55
2021/04/22 01:50:31;;;;;;;;;;;;;;;9.89;57.91;96474.33;1743492;80;21579;-51
2021/04/22 01:52:58;;;;;;;6.45;4.08;;;;;;;9.90;57.89;96479.41;1750153;80;20285;-54
2021/04/22 01:55:36;;;;;;;4.03;3.30;;;;;;;9.89;57.78;96477.73;1737953;81;21428;-51
2021/04/22 01:58:05;;;;;;;3.75;2.92;;;;;;;9.88;57.74;96479.13;1751991;80;21139;-51
2021/04/22 02:00:36;;;;;;;3.12;2.83;;;;;;;9.84;57.53;96471.23;1735540;81;21191;-51
2021/04/22 02:03:06;;;;;;;2.52;2.33;;;;;;;9.81;57.40;96471.44;1736077;81;21143;-52
2021/04/22 02:05:37;;;;;;;2.60;2.40;;;;;;;9.75;57.48;96477.41;1756863;79;21104;-53
2021/04/22 02:08:05;;;;;;;2.72;2.52;;;;;;;9.71;57.44;96465.58;1765010;79;21565;-51
2021/04/22 02:10:34;;;;;;;3.33;2.20;;;;;;;9.65;57.45;96467.30;1766703;79;27262;-51
2021/04/22 02:13:02;;;;;;;2.65;2.45;;;;;;;9.57;57.56;96461.36;1774507;78;21215;-52
2021/04/22 02:15:30;;;;;;;4.75;2.75;;;;;;;9.51;57.71;96462.25;1744771;81;21136;-51
2021/04/22 02:17:58;;;;;;;2.72;2.52;;;;;;;9.47;58.02;96450.43;1761476;80;21041;-51
2021/04/22 02:20:26;;;;;;;2.80;2.60;;;;;;;9.39;58.24;96449.65;1773069;79;21117;-51
2021/04/22 02:22:54;;;;;;;3.08;2.67;;;;;;;9.33;58.49;96443.14;1789942;79;21664;-51
2021/04/22 02:25:25;;;;;;;3.67;3.37;;;;;;;9.26;58.67;96441.06;1773975;79;21119;-50
2021/04/22 02:27:54;;;;;;;4.10;3.70;;;;;;;9.19;59.03;96440.64;1778597;79;21068;-51
2021/04/22 02:30:25;;;;;;;4.35;3.77;;;;;;;9.17;59.22;96445.92;1779986;79;21101;-51
2021/04/22 02:32:53;;;;;;;3.83;3.47;;;;;;;9.15;59.42;96446.50;1770842;79;21353;-53
2021/04/22 02:35:27;;;;;;;4.00;3.62;;;;;;;9.13;59.62;96454.02;1779344;79;21624;-51
2021/04/22 02:37:56;;;;;;;4.67;3.33;;;;;;;9.11;59.83;96452.83;1772032;79;21500;-51
2021/04/22 02:40:27;;;;;;;4.20;3.80;;;;;;;9.10;60.00;96457.63;1772734;79;21125;-51
2021/04/22 02:42:57;;;;;;;4.83;4.42;;;;;;;9.09;60.05;96455.96;1780793;79;21473;-53
2021/04/22 02:45:31;;;;;;;6.47;5.12;;;;;;;9.09;60.12;96452.08;1776914;79;21194;-51
2021/04/22 02:47:59;;;;;;;6.03;5.33;;;;;;;9.08;60.36;96454.77;1773957;80;21151;-51
2021/04/22 02:50:30;;;;;;;5.40;4.90;;;;;;;9.08;60.54;96453.47;1761224;79;21577;-51
2021/04/22 02:52:57;;;;;;;6.15;4.50;;;;;;;9.08;60.67;96452.18;1745150;81;21075;-51
2021/04/22 02:55:25;;;;;;;6.62;5.45;;;;;;;9.09;60.66;96461.61;1713681;82;21108;-51
2021/04/22 02:57:54;;;;;;;6.20;5.60;;;;;;;9.13;60.57;96469.55;1732816;80;21438;-51
2021/04/22 03:00:23;;;;;;;5.72;5.17;;;;;;;9.15;60.52;96465.09;1741071;82;21128;-50
2021/04/22 03:02:51;;;;;;;;;;;;;;;9.14;60.41;96466.02;1736052;80;21171;-51
2021/04/22 03:05:18;;;;;;;6.28;5.12;;;;;;;9.15;60.44;96465.09;1751885;80;20269;-52
2021/04/22 03:07:46;;;;;;;5.55;4.87;;;;;;;9.15;60.50;96453.45;1744559;80;21195;-51
2021/04/22 03:10:16;;;;;;;5.42;4.92;;;;;;;9.16;60.40;96453.80;1743339;80;21416;-51
2021/04/22 03:12:43;;;;;;;4.87;4.45;;;;;;;9.19;60.37;96447.12;1745953;80;21160;-52
2021/04/22 03:15:12;;;;;;;5.22;4.72;;;;;;;9.20;60.21;96441.84;1744547;80;21092;-51
2021/04/22 03:17:40;;;;;;;5.08;4.58;;;;;;;9.21;59.97;96453.86;1745463;80;21135;-51
2021/04/22 03:20:11;;;;;;;5.15;4.65;;;;;;;9.24;59.93;96444.22;1735802;80;21643;-51
2021/04/22 03:22:39;;;;;;;5.00;4.47;;;;;;;9.26;59.99;96448.38;1742591;80;21214;-51
2021/04/22 03:25:09;;;;;;;5.47;4.60;;;;;;;9.26;59.99;96447.53;1746602;80;21204;-51
2021/04/22 03:27:37;;;;;;;5.80;5.12;;;;;;;9.22;60.07;96440.44;1742774;80;21133;-53
2021/04/22 03:30:08;;;;;;;5.40;4.90;;;;;;;9.21;60.30;96447.39;1746298;80;21552;-51
2021/04/22 03:32:35;;;;;;;5.65;5.05;;;;;;;9.22;60.32;96457.27;1741417;80;21112;-50
2021/04/22 03:35:05;;;;;;;7.30;5.37;;;;;;;9.24;60.33;96445.52;1734493;80;21209;-51
2021/04/22 03:37:33;;;;;;;5.97;5.28;;;;;;;9.27;60.21;96430.60;1749301;80;21573;-51
2021/04/22 03:40:01;;;;;;;6.15;5.50;;;;;;;9.31;60.03;96455.81;1738009;80;21235;-51
2021/04/22 03:42:28;;;;;;;6.30;5.70;;;;;;;9.46;59.72;96447.50;1740928;80;21198;-53
2021/04/22 03:44:56;;;;;;;8.48;6.08;;;;;;;9.46;59.72;96447.50;1748658;80;21649;-51
2021/04/22 03:47:23;;;;;;;6.72;6.12;;;;;;;9.60;59.80;96450.42;1744111;80;21528;-51
2021/04/22 03:49:51;;;;;;;7.53;5.92;;;;;;;9.81;59.38;96454.11;1753078;80;21572;-51
2021/04/22 03:52:19;;;;;;;6.67;5.97;;;;;;;10.09;58.65;96452.19;1735988;80;21149;-53
2021/04/22 03:54:49;;;;;;;7.40;5.90;;;;;;;10.32;58.15;96457.06;1742651;81;21156;-54
2021/04/22 03:57:17;;;;;;;6.92;5.90;;;;;;;10.57;57.68;96448.80;1735804;81;21108;-53
2021/04/22 03:59:44;;;;;;;6.78;5.35;;;;;;;10.68;56.73;96446.26;1732594;81;21612;-51
2021/04/22 04:02:12;;;;;;;5.55;5.05;;;;;;;10.70;56.59;96449.56;1731771;81;21580;-51
2021/04/22 04:04:39;;;;;;;7.12;4.55;;;;;;;10.67;56.38;96440.25;1774881;80;21633;-52
2021/04/22 04:07:07;;;;;;;5.55;4.85;;;;;;;10.60;56.59;96444.69;1731110;81;21133;-52
2021/04/22 04:09:36;;;;;;;6.78;4.35;;;;;;;10.55;56.69;96450.69;1753403;80;21056;-52
2021/04/22 04:12:07;;;;;;;4.42;4.00;;;;;;;10.51;56.86;96461.77;1762465;79;23588;-52
2021/04/22 04:14:36;;;;;;;4.85;4.08;;;;;;;10.53;56.73;96455.98;1751825;80;21049;-52
2021/04/22 04:17:04;;;;;;;4.30;3.90;;;;;;;10.53;56.46;96464.25;1747476;80;21102;-51
2021/04/22 04:19:32;;;;;;;4.30;3.70;;;;;;;10.52;56.39;96453.02;1738784;80;21120;-52
2021/04/22 04:22:00;;;;;;;4.10;3.70;;;;;;;10.60;56.17;96454.59;1738355;80;21108;-51
2021/04/22 04:24:27;;;;;;;4.97;3.40;;;;;;;10.85;55.43;96460.12;1744672;80;21367;-52
2021/04/22 04:26:55;;;;;;;3.30;3.00;;;;;;;11.12;54.67;96465.50;1752008;80;21528;-52
2021/04/22 04:29:22;;;;;;;5.17;3.27;;;;;;;11.18;54.06;96466.80;1774909;80;21131;-51
2021/04/22 04:31:52;;;;;;;4.03;3.62;;;;;;;11.16;54.11;96468.69;1764964;80;21564;-52
2021/04/22 04:34:20;;;;;;;4.47;3.55;;;;;;;11.11;53.79;96475.52;1775142;80;21587;-53
2021/04/22 04:36:48;;;;;;;4.07;3.30;;;;;;;10.90;53.87;96475.34;1758747;80;21206;-52
2021/04/22 04:39:16;;;;;;;5.15;3.50;;;;;;;10.71;54.48;96477.63;1743710;80;21992;-51
2021/04/22 04:41:43;;;;;;;3.92;3.52;;;;;;;10.64;55.01;96476.80;1742247;80;21112;-51
2021/04/22 04:44:11;;;;;;;12.30;5.20;;;;;;;10.61;55.27;96492.58;1754521;80;21143;-52
2021/04/22 04:46:40;;;;;;;11.33;5.20;;;;;;;10.56;55.06;96501.17;1746689;80;21188;-52
2021/04/22 04:49:09;;;;;;;7.67;4.75;;;;;;;10.56;55.06;96501.17;1767751;80;22145;-51
2021/04/22 04:51:37;;;;;;;8.73;4.40;;;;;;;10.49;55.08;96506.42;1745324;80;21202;-52
2021/04/22 04:54:05;;;;;;;5.47;4.58;;;;;;;10.43;55.31;96507.70;1747659;80;21049;-52
2021/04/22 04:56:32;;;;;;;6.67;5.90;;;;;;;10.38;55.38;96503.31;1771602;80;21565;-51
2021/04/22 04:59:02;;;;;;;7.30;6.58;;;;;;;10.32;55.77;96495.95;1773605;80;21844;-51
2021/04/22 05:01:29;;;;;;;10.00;7.27;;;;;;;10.31;55.81;96496.41;1765555;80;22201;-52
2021/04/22 05:03:57;;;;;;;7.85;6.87;;;;;;;10.31;55.79;96496.41;1771741;80;21125;-51
2021/04/22 05:06:25;;;;;;;9.40;7.20;;;;;;;10.35;55.97;96497.04;1777581;80;21064;-51
2021/04/22 05:08:52;;;;;;;7.78;6.92;;;;;;;10.43;55.90;96497.32;1771664;80;21179;-51
2021/04/22 05:11:20;;;;;;;7.83;7.03;;;;;;;10.55;55.68;96503.39;1767529;80;21123;-52
2021/04/22 05:13:47;;;;;;;8.23;7.08;;;;;;;10.66;55.54;96506.05;1776776;80;21384;-51
2021/04/22 05:16:15;;;;;;;8.25;7.20;;;;;;;10.79;54.98;96508.59;1772737;80;21092;-51
2021/04/22 05:18:44;;;;;;;8.60;7.70;;;;;;;10.91;54.91;96506.04;1734199;79;21069;-51
2021/04/22 05:21:12;;;;;;;9.33;7.60;;;;;;;11.02;54.50;96503.48;1749569;81;21123;-51
2021/04/22 05:23:40;;;;;;;8.75;7.65;;;;;;;11.19;54.38;96517.81;1764097;80;21124;-52
2021/04/22 05:26:08;;;;;;;9.60;7.75;;;;;;;11.28;53.99;96512.39;1769505;79;21117;-53
2021/04/22 05:28:36;;;;;;;8.57;7.77;;;;;;;11.40;53.63;96503.22;1783816;79;21065;-52
2021/04/22 05:31:03;;;;;;;9.08;7.70;;;;;;;11.57;53.13;96529.70;1747582;80;21095;-52
2021/04/22 05:33:31;;;;;;;11.05;8.00;;;;;;;11.75;52.78;96520.50;1751487;80;21601;-52
2021/04/22 05:36:00;;;;;;;9.00;7.90;;;;;;;11.92;52.47;96528.80;1753684;80;21155;-51
2021/04/22 05:38:27;;;;;;;7.58;6.83;;;;;;;12.09;51.99;96527.52;1747393;80;21206;-52
2021/04/22 05:40:56;;;;;;;9.28;6.90;;;;;;;12.23;51.75;96525.95;1741010;80;21068;-52
2021/04/22 05:43:24;;;;;;;8.00;7.20;;;;;;;12.31;51.40;96520.97;1754412;80;21128;-52
2021/04/22 05:45:51;;;;;;;10.63;8.30;;;;;;;12.29;51.64;96516.86;1754162;80;21597;-51
2021/04/22 05:48:19;;;;;;;10.40;7.87;;;;;;;12.22;51.74;96513.06;1756670;80;21100;-52
2021/04/22 05:50:47;;;;;;;10.40;8.70;;;;;;;12.07;51.94;96512.48;1756500;80;22155;-52
2021/04/22 05:53:16;;;;;;;9.65;8.18;;;;;;;11.83;52.51;96512.60;1750657;80;21068;-51
2021/04/22 05:55:44;;;;;;;9.98;8.48;;;;;;;11.67;52.90;96513.75;1748275;80;21065;-51
2021/04/22 05:58:12;;;;;;;9.83;8.40;;;;;;;11.58;53.44;96511.39;1753910;80;21140;-51
2021/04/22 06:00:39;;;;;;;11.90;8.98;;;;;;;11.55;53.52;96516.81;1748739;80;21691;-52
2021/04/22 06:03:07;;;;;;;10.65;8.43;;;;;;;11.52;53.77;96522.73;1755313;80;22277;-52
2021/04/22 06:05:36;;;;;;;9.65;8.43;;;;;;;11.54;53.80;96519.53;1742135;80;21068;-51
2021/04/22 06:08:05;;;;;;;10.17;8.80;;;;;;;11.53;53.80;96513.52;1750269;80;21060;-51
2021/04/22 06:10:32;;;;;;;13.32;9.55;;;;;;;11.49;53.92;96522.47;1750215;80;21129;-52
2021/04/22 06:13:00;;;;;;;10.72;9.43;;;;;;;11.45;53.47;96513.72;1750977;80;21159;-51
2021/04/22 06:15:28;;;;;;;11.05;9.25;;;;;;;11.41;54.04;96510.53;1754560;80;22121;-51
2021/04/22 06:17:55;;;;;;;12.90;9.68;;;;;;;11.49;54.22;96513.38;1749111;80;21077;-52
2021/04/22 06:20:23;;;;;;;11.63;9.73;;;;;;;11.52;53.78;96503.23;1749229;80;21147;-52
2021/04/22 06:22:51;;;;;;;11.90;9.53;;;;;;;11.57;53.91;96504.53;1743258;80;21136;-51
2021/04/22 06:25:20;;;;;;;14.43;9.90;;;;;;;11.70;53.38;96508.81;1748691;80;21203;-53
2021/04/22 06:27:50;;;;;;;12.13;9.98;;;;;;;11.81;53.72;96502.77;1755015;80;21445;-52
2021/04/22 06:30:19;;;;;;;12.45;10.30;;;;;;;12.00;52.74;96503.52;1748081;80;21227;-51
2021/04/22 06:32:46;;;;;;;13.00;10.00;;;;;;;12.01;52.42;96503.89;1755355;80;21179;-51
2021/04/22 06:35:15;;;;;;;12.03;9.75;;;;;;;12.06;52.69;96504.35;1747793;79;21187;-51
2021/04/22 06:37:43;;;;;;;;;;;;;;;12.10;51.77;96488.84;1756778;80;21473;-51
2021/04/22 06:40:14;;;;;;;11.53;10.15;;;;;;;12.11;51.86;96488.73;1754062;80;21324;-51
2021/04/22 06:42:44;;;;;;;11.78;9.73;;;;;;;12.11;51.75;96492.63;1760180;80;21082;-54
2021/04/22 06:45:13;;;;;;;13.48;9.70;;;;;;;12.14;51.32;96500.20;1748966;79;21180;-51
2021/04/22 06:47:41;;;;;;;;;;;;;;;12.24;51.58;96495.10;1769377;80;21549;-51
2021/04/22 06:50:12;;;;;;;12.45;10.13;;;;;;;12.36;50.28;96495.08;1754483;80;37271;-53
2021/04/22 06:52:40;;;;;;;12.53;10.43;;;;;;;12.48;50.43;96505.80;1751300;80;21386;-52
2021/04/22 06:55:12;;;;;;;14.53;9.85;;;;;;;12.69;50.27;96508.47;1758435;80;21606;-51
2021/04/22 06:57:42;;;;;;;10.70;9.35;;;;;;;12.91;49.32;96505.43;1775980;79;21141;-51
2021/04/22 07:00:13;;;;;;;11.85;8.73;;;;;;;13.13;48.55;96498.01;1774065;79;21114;-53
2021/04/22 07:02:40;;;;;;;10.82;9.48;;;;;;;13.31;47.74;96505.59;1735556;80;21191;-52
2021/04/22 07:05:10;;;;;;;9.03;8.08;;;;;;;13.36;47.90;96502.16;1763581;79;21403;-53
2021/04/22 07:07:38;;;;;;;10.35;9.03;;;;;;;13.40;47.91;96506.18;1773131;79;21139;-51
2021/04/22 07:10:08;;;;;;;11.45;9.30;;;;;;;13.50;48.08;96500.99;1787408;79;21068;-51
2021/04/22 07:12:35;;;;;;;12.33;9.48;;;;;;;13.64;47.53;96489.42;1777301;79;21124;-51
2021/04/22 07:15:05;;;;;;;10.03;8.88;;;;;;;13.70;46.60;96508.47;1790325;78;21227;-52
2021/04/22 07:17:33;;;;;;;11.53;9.08;;;;;;;13.66;45.92;96497.12;1784188;79;21406;-52
2021/04/22 07:20:00;;;;;;;10.23;9.03;;;;;;;13.56;45.90;96503.09;1784877;79;21167;-51
2021/04/22 07:22:28;;;;;;;10.15;8.53;;;;;;;13.59;46.49;96492.41;1778966;79;21174;-51
2021/04/22 07:24:56;;;;;;;10.88;8.83;;;;;;;13.74;46.05;96498.59;1775863;79;21112;-52
2021/04/22 07:27:24;;;;;;;10.93;9.08;;;;;;;13.91;46.05;96494.55;1771411;79;21548;-53
2021/04/22 07:29:53;;;;;;;9.68;8.68;;;;;;;14.11;45.78;96492.82;1771041;79;21155;-53
2021/04/22 07:32:20;;;;;;;10.30;8.75;;;;;;;14.35;45.75;96499.83;1788276;79;21163;-51
2021/04/22 07:34:48;;;;;;;9.70;8.70;;;;;;;14.70;44.90;96504.24;1768830;79;21072;-51
2021/04/22 07:37:18;;;;;;;10.90;8.80;;;;;;;14.89;44.15;96498.22;1772452;79;21214;-52
2021/04/22 07:39:45;;;;;;;13.18;9.63;;;;;;;15.04;44.38;96499.94;1766006;79;21065;-53
2021/04/22 07:42:13;;;;;;;12.10;9.68;;;;;;;15.28;43.47;96499.52;1764265;80;21574;-51
2021/04/22 07:44:42;;;;;;;11.03;9.28;;;;;;;15.62;42.81;96493.78;1781711;79;21115;-53
2021/04/22 07:47:12;;;;;;;11.05;8.95;;;;;;;16.06;42.16;96498.00;1770596;79;21111;-51
2021/04/22 07:49:43;;;;;;;10.60;8.93;;;;;;;16.62;40.83;96507.14;1735009;80;21171;-56
2021/04/22 07:52:11;;;;;;;13.93;9.28;;;;;;;17.04;39.91;96495.62;1756731;80;21647;-53
2021/04/22 07:54:39;;;;;;;11.45;9.40;;;;;;;17.60;39.16;96495.37;1784202;79;21173;-52
2021/04/22 07:57:07;;;;;;;12.20;9.23;;;;;;;18.15;37.48;96496.83;1776927;79;21466;-52
2021/04/22 07:59:35;;;;;;;10.60;8.83;;;;;;;18.56;36.39;96495.65;1788712;79;21101;-52
2021/04/22 08:02:07;;;;;;;11.05;8.28;;;;;;;18.81;36.36;96497.82;1780417;79;21092;-52
2021/04/22 08:04:35;;;;;;;14.18;9.68;;;;;;;19.16;34.63;96499.88;1784692;79;22312;-51
2021/04/22 08:07:03;;;;;;;8.88;7.97;;;;;;;19.30;34.77;96500.52;1775327;79;21361;-52
2021/04/22 08:09:33;;;;;;;10.50;8.13;;;;;;;19.67;34.10;96499.17;1780212;79;21136;-52
2021/04/22 08:12:05;;;;;;;11.43;8.73;;;;;;;19.89;33.64;96488.94;1786010;79;21123;-50
2021/04/22 08:14:31;;;;;;;9.45;8.43;;;;;;;20.17;33.26;96485.89;1774723;79;21608;-53
2021/04/22 08:16:58;;;;;;;9.93;8.50;;;;;;;20.26;33.22;96486.66;1766105;79;21556;-53
2021/04/22 08:19:26;;;;;;;9.73;8.50;;;;;;;20.48;32.92;96487.73;1776115;78;21497;-51
2021/04/22 08:21:53;;;;;;;12.35;8.55;;;;;;;20.65;32.28;96487.16;1791574;78;21055;-52
2021/04/22 08:24:21;;;;;;;9.60;8.60;;;;;;;20.68;32.60;96492.90;1781551;79;21129;-52
2021/04/22 08:26:49;;;;;;;9.50;8.08;;;;;;;20.58;32.03;96491.77;1776447;79;21526;-52
2021/04/22 08:29:16;;;;;;;9.58;8.43;;;;;;;20.35;31.99;96486.45;1769987;79;21164;-54
2021/04/22 08:31:44;;;;;;;9.53;7.85;;;;;;;20.08;32.75;96505.34;1782370;79;21208;-52
2021/04/22 08:34:12;;;;;;;10.23;7.30;;;;;;;20.03;32.89;96484.77;1783862;79;21166;-52
2021/04/22 08:36:41;;;;;;;10.30;8.35;;;;;;;19.99;32.70;96488.25;1744865;80;21822;-52
2021/04/22 08:39:10;;;;;;;11.60;8.33;;;;;;;19.97;32.70;96496.81;1721435;83;21119;-51
2021/04/22 08:41:39;;;;;;;8.50;7.17;;;;;;;20.20;32.57;96490.31;1758764;80;21133;-52
2021/04/22 08:44:09;;;;;;;10.55;8.05;;;;;;;20.40;31.73;96491.22;1752298;80;21207;-52
2021/04/22 08:46:42;;;;;;;9.50;6.83;;;;;;;20.30;33.11;96493.25;1758025;79;21152;-52
2021/04/22 08:49:11;;;;;;;8.33;6.75;;;;;;;20.62;32.07;96484.84;1758540;80;21568;-52
2021/04/22 08:51:38;;;;;;;7.92;7.12;;;;;;;20.56;31.58;96501.67;1758755;80;21690;-52
2021/04/22 08:54:06;;;;;;;8.58;7.30;;;;;;;20.23;31.80;96499.70;1762348;80;21053;-51
2021/04/22 08:56:37;;;;;;;7.80;7.10;;;;;;;19.68;33.24;96487.63;1777718;79;22222;-52
2021/04/22 08:59:05;;;;;;;9.55;7.85;;;;;;;19.43;32.82;96496.06;1757468;80;21190;-51
2021/04/22 09:01:34;;;;;;;9.20;7.45;;;;;;;19.12;33.08;96497.23;1774177;79;21163;-51
2021/04/22 09:04:06;;;;;;;7.40;6.25;;;;;;;18.54;34.73;96498.94;1773673;79;21104;-52
2021/04/22 09:06:35;;;;;;;7.92;7.12;;;;;;;18.47;34.97;96493.97;1787364;79;21065;-52
2021/04/22 09:09:07;;;;;;;7.83;7.00;;;;;;;18.54;34.88;96495.80;1779045;79;21177;-53
2021/04/22 09:11:46;;;;;;;8.08;7.30;;;;;;;18.37;34.75;96485.75;1787103;79;21529;-51
2021/04/22 09:14:18;;;;;;;8.03;6.90;;;;;;;18.34;35.29;96506.27;1785479;79;21067;-51
2021/04/22 09:16:47;;;;;;;8.48;7.35;;;;;;;18.19;34.92;96496.83;1765702;79;21203;-53
2021/04/22 09:19:22;;;;;;;7.95;7.15;;;;;;;18.08;35.21;96487.95;1783184;79;21072;-52
2021/04/22 09:21:56;;;;;;;9.30;7.40;;;;;;;18.00;34.74;96499.22;1732148;80;21386;-53
2021/04/22 09:24:26;;;;;;;8.30;7.40;;;;;;;17.95;34.90;96486.56;1760008;80;21171;-52
2021/04/22 09:27:00;;;;;;;9.63;7.70;;;;;;;18.00;35.13;96480.34;1767586;79;21097;-53
2021/04/22 09:29:36;;;;;;;10.50;7.17;;;;;;;17.73;35.15;96491.00;1781552;79;21171;-52
2021/04/22 09:32:14;;;;;;;9.53;6.90;;;;;;;17.63;35.38;96489.33;1756312;80;21473;-52
2021/04/22 09:34:52;;;;;;;10.58;6.87;;;;;;;17.75;34.66;96495.13;1775577;79;22374;-52
2021/04/22 09:37:21;;;;;;;10.43;7.15;;;;;;;17.74;35.43;96506.59;1752727;80;21596;-53
2021/04/22 09:39:51;;;;;;;11.18;6.78;;;;;;;17.82;35.57;96478.27;1764758;79;22171;-51
2021/04/22 09:42:19;;;;;;;9.83;7.05;;;;;;;17.87;34.63;96482.59;1754947;79;21180;-53
2021/04/22 09:44:49;;;;;;;7.67;6.42;;;;;;;17.93;34.92;96491.66;1767599;79;21617;-53
2021/04/22 09:47:22;;;;;;;8.88;7.08;;;;;;;17.89;35.25;96488.49;1765341;79;21199;-53
2021/04/22 09:49:55;;;;;;;8.78;6.70;;;;;;;17.91;34.89;96485.25;1759808;79;21661;-52
2021/04/22 09:52:21;;;;;;;9.33;7.08;;;;;;;18.10;35.63;96488.11;1764876;80;21571;-52
2021/04/22 09:54:52;;;;;;;14.45;6.65;;;;;;;18.64;34.57;96486.47;1778014;79;21191;-56
2021/04/22 09:57:28;;;;;;;8.55;6.22;;;;;;;18.81;33.71;96487.81;1739093;81;21391;-53
2021/04/22 09:59:57;;;;;;;9.85;6.47;;;;;;;18.72;33.55;96485.67;1755694;80;21355;-52
2021/04/22 10:02:25;;;;;;;13.53;7.12;;;;;;;18.63;34.00;96469.55;1759845;80;21579;-51
2021/04/22 10:04:55;;;;;;;6.67;5.58;;;;;;;18.36;35.14;96481.97;1755923;80;21124;-51
2021/04/22 10:07:33;;;;;;;8.18;5.33;;;;;;;18.13;34.69;96475.98;1734438;81;21587;-51
2021/04/22 10:10:19;;;;;;;5.78;4.90;;;;;;;18.06;35.05;96475.44;1750671;80;21192;-50
2021/04/22 10:12:47;;;;;;;6.75;5.08;;;;;;;17.97;35.06;96475.41;1755236;79;21388;-52
2021/04/22 10:15:22;;;;;;;4.78;4.25;;;;;;;17.57;35.57;96473.38;1754522;80;21093;-52
2021/04/22 10:17:57;;;;;;;9.13;4.50;;;;;;;17.13;36.59;96483.89;1765776;79;21104;-51
2021/04/22 10:20:29;;;;;;;6.28;3.62;;;;;;;16.66;37.83;96494.06;1757112;80;21469;-51
2021/04/22 10:22:57;;;;;;;16.80;4.17;;;;;;;16.27;38.87;96473.39;1748975;80;21077;-51
2021/04/22 10:25:28;;;;;;;4.55;3.20;;;;;;;15.72;40.67;96497.19;1765821;80;21811;-51
2021/04/22 10:28:14;;;;;;;7.20;3.75;;;;;;;15.33;41.01;96493.38;1755033;80;21096;-53
2021/04/22 10:30:45;;;;;;;6.35;3.45;;;;;;;14.89;42.12;96489.08;1762832;80;21115;-51
2021/04/22 10:33:13;;;;;;;3.55;3.20;;;;;;;14.58;43.08;96475.29;1749707;79;21182;-52
2021/04/22 10:35:43;;;;;;;6.45;3.72;;;;;;;14.26;44.04;96492.81;1778022;79;21131;-51
2021/04/22 10:38:11;;;;;;;3.98;3.33;;;;;;;13.93;44.12;96492.63;1749643;80;21433;-52
2021/04/22 10:40:47;;;;;;;3.80;2.83;;;;;;;13.58;44.67;96489.45;1750438;81;27602;-51
2021/04/22 10:43:24;;;;;;;3.98;3.10;;;;;;;13.18;45.24;96499.75;1762021;79;21222;-53
2021/04/22 10:45:54;;;;;;;4.45;3.40;;;;;;;12.80;45.79;96482.40;1743218;80;21564;-51
2021/04/22 10:48:21;;;;;;;3.75;3.40;;;;;;;12.55;46.71;96491.38;1756503;80;21643;-52
2021/04/22 10:50:53;;;;;;;3.70;3.40;;;;;;;12.46;47.27;96492.09;1758092;80;21248;-52
2021/04/22 10:53:22;;;;;;;5.28;3.80;;;;;;;12.42;47.55;96485.02;1748841;80;21116;-52
2021/04/22 10:55:53;;;;;;;3.85;3.55;;;;;;;12.32;47.93;96481.02;1759546;79;21136;-52
2021/04/22 10:58:29;;;;;;;4.20;3.80;;;;;;;12.21;48.46;96484.12;1768871;79;21128;-51
2021/04/22 11:01:09;;;;;;;6.65;3.60;;;;;;;12.14;48.78;96482.47;1765840;79;21515;-53
2021/04/22 11:03:47;;;;;;;4.25;3.33;;;;;;;12.19;48.81;96479.03;1767484;79;21359;-52
2021/04/22 11:06:18;;;;;;;5.75;3.72;;;;;;;12.25;49.03;96478.55;1767075;79;21584;-51
2021/04/22 11:08:52;;;;;;;4.37;3.70;;;;;;;12.33;49.09;96481.38;1771105;79;21651;-52
2021/04/22 11:11:28;;;;;;;4.47;3.70;;;;;;;12.39;48.56;96467.52;1761405;80;21198;-51
2021/04/22 11:14:14;;;;;;;5.37;4.60;;;;;;;12.29;47.94;96470.84;1757079;80;21065;-51
2021/04/22 11:16:51;;;;;;;3.75;3.45;;;;;;;12.20;48.37;96466.36;1761500;80;21204;-55
2021/04/22 11:19:33;;;;;;;3.67;3.35;;;;;;;12.24;49.00;96463.88;1736280;81;21185;-50
2021/04/22 11:22:22;;;;;;;3.45;3.10;;;;;;;12.42;48.62;96473.79;1765843;79;21174;-51
2021/04/22 11:24:59;;;;;;;4.12;3.72;;;;;;;12.61;47.85;96473.12;1766925;79;21171;-52
2021/04/22 11:27:31;;;;;;;6.87;5.60;;;;;;;12.84;47.11;96465.56;1770686;79;21439;-53
2021/04/22 11:30:05;;;;;;;6.65;4.15;;;;;;;13.24;46.55;96460.98;1765304;79;21203;-51
2021/04/22 11:32:39;;;;;;;7.72;5.53;;;;;;;13.71;44.97;96462.35;1765233;79;21129;-52
2021/04/22 11:35:16;;;;;;;7.97;5.40;;;;;;;14.16;44.69;96452.34;1771629;79;21494;-53
2021/04/22 11:37:48;;;;;;;;;;;;;;;14.69;43.65;96451.20;1776143;79;21044;-50
2021/04/22 11:40:30;;;;;;;8.45;5.47;;;;;;;15.10;42.72;96437.98;1773321;79;20232;-52
2021/04/22 11:42:59;;;;;;;8.43;5.28;;;;;;;15.30;41.97;96432.72;1764123;79;21216;-52
2021/04/22 11:45:31;;;;;;;5.70;4.60;;;;;;;15.24;42.05;96427.56;1771645;79;21087;-52
2021/04/22 11:48:08;;;;;;;8.28;4.62;;;;;;;15.14;42.35;96426.27;1737807;79;21621;-53